Time;durP1;ratioP1;P1;durP2;ratioP2;P2;SDS_P1;SDS_P2;PMS_P1;PMS_P2;Temp;Humidity;BMP_temperature;BMP_pressure;BME280_temperature;BME280_humidity;BME280_pressure;Samples;Min_cycle;Max_cycle;Signal;HPM_P1;HPM_P2
2023/08/17 00:01:28;;;;;;;10.65;8.48;;;;;;;;;;10559940;28;20947;-94
2023/08/17 00:06:30;;;;;;;9.50;8.50;;;;;;;;;;10563453;28;20403;-96
2023/08/17 00:11:32;;;;;;;12.10;8.00;;;;;;;;;;10561515;28;20463;-96
2023/08/17 00:16:36;;;;;;;9.43;7.97;;;;;;;;;;10565242;28;20404;-96
2023/08/17 00:21:39;;;;;;;8.88;7.85;;;;;;;;;;10559384;28;20423;-95
2023/08/17 00:26:41;;;;;;;9.30;8.35;;;;;;;;;;10562253;28;20830;-95
2023/08/17 00:31:45;;;;;;;9.27;8.27;;;;;;;;;;10557763;28;20903;-95
2023/08/17 00:36:47;;;;;;;9.45;8.55;;;;;;;;;;10562174;28;20405;-95
2023/08/17 00:41:49;;;;;;;9.65;8.65;;;;;;;;;;10558504;28;20402;-96
2023/08/17 00:46:53;;;;;;;10.98;8.73;;;;;;;;;;10557782;28;20399;-95
2023/08/17 00:51:55;;;;;;;10.13;9.13;;;;;;;;;;10560253;28;20468;-95
2023/08/17 00:56:59;;;;;;;9.77;8.30;;;;;;;;;;10553800;28;20426;-95
2023/08/17 01:02:03;;;;;;;10.07;8.95;;;;;;;;;;10558141;28;20397;-95
2023/08/17 01:07:05;;;;;;;10.38;8.93;;;;;;;;;;10557628;28;20404;-95
2023/08/17 01:12:17;;;;;;;11.77;9.57;;;;;;;;;;10562668;28;20419;-95
2023/08/17 01:17:27;;;;;;;12.10;10.33;;;;;;;;;;10558227;28;20400;-95
2023/08/17 01:22:32;;;;;;;11.48;9.35;;;;;;;;;;10559635;28;20762;-95
2023/08/17 01:27:41;;;;;;;10.85;8.88;;;;;;;;;;10556208;28;20407;-96
2023/08/17 01:32:49;;;;;;;12.10;9.20;;;;;;;;;;10555264;28;20410;-95
2023/08/17 01:37:54;;;;;;;9.80;8.80;;;;;;;;;;10558202;28;20400;-94
2023/08/17 01:42:58;;;;;;;10.50;9.00;;;;;;;;;;10557676;28;20426;-96
2023/08/17 01:48:00;;;;;;;9.05;8.15;;;;;;;;;;10568258;28;20400;-95
2023/08/17 01:53:03;;;;;;;8.70;7.63;;;;;;;;;;10563982;28;20415;-95
2023/08/17 01:58:06;;;;;;;9.73;7.65;;;;;;;;;;10574388;28;20455;-96
2023/08/17 02:03:09;;;;;;;7.93;7.13;;;;;;;;;;10563800;28;20468;-94
2023/08/17 02:08:11;;;;;;;8.82;7.93;;;;;;;;;;10563854;28;20798;-94
2023/08/17 02:13:15;;;;;;;8.63;7.82;;;;;;;;;;10562639;28;20438;-96
2023/08/17 02:18:18;;;;;;;9.00;7.88;;;;;;;;;;10564232;28;20435;-96
2023/08/17 02:23:20;;;;;;;10.20;7.83;;;;;;;;;;10569655;28;20778;-95
2023/08/17 02:28:24;;;;;;;8.55;7.50;;;;;;;;;;10567380;28;20450;-96
2023/08/17 02:33:26;;;;;;;8.20;7.30;;;;;;;;;;10563844;28;20419;-95
2023/08/17 02:38:28;;;;;;;8.88;7.90;;;;;;;;;;10565489;28;20398;-94
2023/08/17 02:43:32;;;;;;;8.40;7.53;;;;;;;;;;10562352;28;20764;-95
2023/08/17 02:48:35;;;;;;;8.20;7.40;;;;;;;;;;10561547;28;20395;-94
2023/08/17 02:53:37;;;;;;;8.15;7.25;;;;;;;;;;10566775;28;20421;-96
2023/08/17 02:58:41;;;;;;;7.88;6.80;;;;;;;;;;10561034;28;20442;-94
2023/08/17 03:03:43;;;;;;;7.55;6.65;;;;;;;;;;10565486;28;20405;-94
2023/08/17 03:08:45;;;;;;;7.80;7.05;;;;;;;;;;10564940;28;20471;-95
2023/08/17 03:13:49;;;;;;;7.75;6.70;;;;;;;;;;10559918;28;20423;-95
2023/08/17 03:18:51;;;;;;;7.28;6.57;;;;;;;;;;10557910;28;20400;-96
2023/08/17 03:23:54;;;;;;;7.70;6.82;;;;;;;;;;10564735;28;20431;-95
2023/08/17 03:28:57;;;;;;;12.03;7.37;;;;;;;;;;10562335;28;20432;-94
2023/08/17 03:34:01;;;;;;;8.88;7.40;;;;;;;;;;10562967;28;20415;-94
2023/08/17 03:39:03;;;;;;;7.88;7.07;;;;;;;;;;10560337;28;20403;-95
2023/08/17 03:44:09;;;;;;;9.93;7.40;;;;;;;;;;10559706;28;20408;-96
2023/08/17 03:49:11;;;;;;;8.48;7.63;;;;;;;;;;10563118;28;20451;-94
2023/08/17 03:54:13;;;;;;;8.43;7.30;;;;;;;;;;10562989;28;20419;-95
2023/08/17 03:59:17;;;;;;;8.40;7.50;;;;;;;;;;10561638;28;20400;-94
2023/08/17 04:04:19;;;;;;;8.93;8.00;;;;;;;;;;10559417;28;20429;-95
2023/08/17 04:09:22;;;;;;;9.40;7.78;;;;;;;;;;10565852;28;20402;-94
2023/08/17 04:14:26;;;;;;;8.67;7.77;;;;;;;;;;10566165;28;20410;-94
2023/08/17 04:19:28;;;;;;;10.43;8.13;;;;;;;;;;10565136;28;20432;-96
2023/08/17 04:24:30;;;;;;;8.70;7.85;;;;;;;;;;10561382;28;20434;-95
2023/08/17 04:29:34;;;;;;;10.20;8.00;;;;;;;;;;10555864;28;20426;-95
2023/08/17 04:34:36;;;;;;;10.67;8.83;;;;;;;;;;10561185;28;20923;-95
2023/08/17 04:39:39;;;;;;;11.10;8.30;;;;;;;;;;10553903;28;20408;-95
2023/08/17 04:44:42;;;;;;;8.93;8.02;;;;;;;;;;10553814;28;20484;-95
2023/08/17 04:49:45;;;;;;;8.80;7.60;;;;;;;;;;10556939;28;20465;-95
2023/08/17 04:54:47;;;;;;;10.23;8.15;;;;;;;;;;10557633;28;20424;-94
2023/08/17 04:59:52;;;;;;;8.90;7.45;;;;;;;;;;10556590;28;20388;-94
2023/08/17 05:04:54;;;;;;;8.38;7.32;;;;;;;;;;10559271;28;20404;-95
2023/08/17 05:09:56;;;;;;;22.27;9.15;;;;;;;;;;10556850;28;21100;-96
2023/08/17 05:15:00;;;;;;;8.73;7.63;;;;;;;;;;10560017;28;20513;-94
2023/08/17 05:20:04;;;;;;;7.88;6.90;;;;;;;;;;10557303;28;20430;-96
2023/08/17 05:25:07;;;;;;;8.23;6.90;;;;;;;;;;10557298;28;20428;-94
2023/08/17 05:30:11;;;;;;;8.02;6.63;;;;;;;;;;10555901;28;20408;-96
2023/08/17 05:35:14;;;;;;;7.07;6.38;;;;;;;;;;10555119;28;20922;-94
2023/08/17 05:40:16;;;;;;;7.27;6.43;;;;;;;;;;10561453;28;20422;-96
2023/08/17 05:45:20;;;;;;;7.50;6.80;;;;;;;;;;10558984;28;20396;-95
2023/08/17 05:50:22;;;;;;;7.67;6.30;;;;;;;;;;10556501;28;20428;-95
2023/08/17 05:55:25;;;;;;;8.73;6.90;;;;;;;;;;10559559;28;20416;-95
2023/08/17 06:00:28;;;;;;;7.43;6.57;;;;;;;;;;10555106;28;20393;-95
2023/08/17 06:05:31;;;;;;;7.73;6.50;;;;;;;;;;10555685;28;20389;-96
2023/08/17 06:10:33;;;;;;;9.10;7.03;;;;;;;;;;10558121;28;20408;-95
2023/08/17 06:15:37;;;;;;;7.60;6.72;;;;;;;;;;10555835;28;20468;-94
2023/08/17 06:20:39;;;;;;;7.18;6.45;;;;;;;;;;10557868;28;20407;-95
2023/08/17 06:25:41;;;;;;;7.88;6.63;;;;;;;;;;10558890;28;20420;-95
2023/08/17 06:30:45;;;;;;;7.00;6.32;;;;;;;;;;10549501;28;20878;-95
2023/08/17 06:35:48;;;;;;;12.20;6.75;;;;;;;;;;10559602;28;20417;-95
2023/08/17 06:40:50;;;;;;;7.55;6.47;;;;;;;;;;10559116;28;20405;-96
2023/08/17 06:45:54;;;;;;;7.63;6.68;;;;;;;;;;10563681;28;20398;-96
2023/08/17 06:50:56;;;;;;;7.32;6.63;;;;;;;;;;10566130;28;20405;-96
2023/08/17 06:55:58;;;;;;;8.40;6.57;;;;;;;;;;10566340;28;20463;-95
2023/08/17 07:01:02;;;;;;;10.10;6.97;;;;;;;;;;10580864;28;20407;-95
2023/08/17 07:06:05;;;;;;;8.05;7.07;;;;;;;;;;10587875;28;20760;-95
2023/08/17 07:11:08;;;;;;;8.43;7.53;;;;;;;;;;10601568;28;20420;-96
2023/08/17 07:16:12;;;;;;;8.23;7.40;;;;;;;;;;10595386;28;20388;-95
2023/08/17 07:21:14;;;;;;;7.00;6.30;;;;;;;;;;10610964;28;20891;-96
2023/08/17 07:26:18;;;;;;;7.82;6.47;;;;;;;;;;10570672;28;20456;-94
2023/08/17 07:31:22;;;;;;;7.82;7.03;;;;;;;;;;10567369;28;21021;-95
2023/08/17 07:36:24;;;;;;;8.33;6.67;;;;;;;;;;10562937;28;20431;-96
2023/08/17 07:41:27;;;;;;;7.57;6.73;;;;;;;;;;10587091;28;20418;-94
2023/08/17 07:51:59;;;;;;;7.57;6.77;;;;;;;;;;10573022;28;20424;-96
2023/08/17 07:57:03;;;;;;;6.97;6.38;;;;;;;;;;10580466;28;20401;-96
2023/08/17 08:02:07;;;;;;;7.38;6.68;;;;;;;;;;10593616;28;20410;-96
2023/08/17 08:07:13;;;;;;;7.68;6.97;;;;;;;;;;10611205;27;20431;-94
2023/08/17 08:12:15;;;;;;;9.85;6.95;;;;;;;;;;10603201;28;20461;-96
2023/08/17 08:17:19;;;;;;;7.30;6.60;;;;;;;;;;10597865;28;20432;-96
2023/08/17 08:22:25;;;;;;;7.80;7.00;;;;;;;;;;10597235;28;20396;-96
2023/08/17 08:27:28;;;;;;;7.20;6.50;;;;;;;;;;10605067;28;20393;-96
2023/08/17 08:32:31;;;;;;;8.02;7.00;;;;;;;;;;10584562;28;20496;-96
2023/08/17 08:37:35;;;;;;;8.13;6.67;;;;;;;;;;10584030;28;20399;-96
2023/08/17 08:42:37;;;;;;;7.15;6.45;;;;;;;;;;10596051;28;20424;-94
2023/08/17 08:47:42;;;;;;;7.57;6.87;;;;;;;;;;10601148;28;20822;-94
2023/08/17 08:52:54;;;;;;;7.03;6.33;;;;;;;;;;10588185;28;20406;-93
2023/08/17 08:58:00;;;;;;;7.30;6.50;;;;;;;;;;10602712;28;20432;-95
2023/08/17 09:03:03;;;;;;;7.80;6.05;;;;;;;;;;10580374;28;20862;-94
2023/08/17 09:08:11;;;;;;;6.63;6.03;;;;;;;;;;10560183;28;20432;-94
2023/08/17 09:13:13;;;;;;;7.72;6.40;;;;;;;;;;10559209;28;20965;-94
2023/08/17 09:18:17;;;;;;;6.93;6.30;;;;;;;;;;10562414;28;20406;-94
2023/08/17 09:23:22;;;;;;;6.97;6.32;;;;;;;;;;10571566;28;20406;-96
2023/08/17 09:28:25;;;;;;;6.78;6.13;;;;;;;;;;10582249;28;20412;-95
2023/08/17 09:33:30;;;;;;;6.95;6.15;;;;;;;;;;10591922;27;20388;-96
2023/08/17 09:38:33;;;;;;;7.43;6.60;;;;;;;;;;10597907;27;20466;-96
2023/08/17 09:43:37;;;;;;;8.98;7.00;;;;;;;;;;10567999;28;20443;-96
2023/08/17 09:48:39;;;;;;;7.80;6.80;;;;;;;;;;10575465;28;20402;-96
2023/08/17 09:53:43;;;;;;;8.20;6.88;;;;;;;;;;10576283;28;20477;-96
2023/08/17 09:58:45;;;;;;;8.18;6.50;;;;;;;;;;10588612;28;20447;-95
2023/08/17 10:03:49;;;;;;;8.80;6.33;;;;;;;;;;10590883;28;20405;-94
2023/08/17 10:08:56;;;;;;;7.40;6.68;;;;;;;;;;10569738;28;20495;-96
2023/08/17 10:14:05;;;;;;;7.13;6.43;;;;;;;;;;10584542;28;20419;-96
2023/08/17 10:19:18;;;;;;;7.30;6.60;;;;;;;;;;10571037;28;20408;-95
2023/08/17 10:24:22;;;;;;;7.20;6.50;;;;;;;;;;10565697;28;20402;-95
2023/08/17 10:29:25;;;;;;;7.27;6.50;;;;;;;;;;10555957;28;20405;-94
2023/08/17 10:34:28;;;;;;;6.63;6.03;;;;;;;;;;10566873;28;20465;-95
2023/08/17 10:39:33;;;;;;;6.87;6.17;;;;;;;;;;10564454;28;20465;-93
2023/08/17 10:44:40;;;;;;;7.20;6.60;;;;;;;;;;10548713;28;20396;-94
2023/08/17 10:49:43;;;;;;;7.90;6.28;;;;;;;;;;10565547;28;20412;-94
2023/08/17 10:54:48;;;;;;;7.50;6.70;;;;;;;;;;10563154;28;20438;-93
2023/08/17 11:00:13;;;;;;;7.30;6.60;;;;;;;;;;10560171;28;20456;-94
2023/08/17 11:05:34;;;;;;;7.28;6.57;;;;;;;;;;10558413;28;20399;-95
2023/08/17 11:10:39;;;;;;;7.22;6.47;;;;;;;;;;10564886;28;20439;-94
2023/08/17 11:15:44;;;;;;;7.18;6.47;;;;;;;;;;10564304;28;20469;-94
2023/08/17 11:20:48;;;;;;;9.07;6.63;;;;;;;;;;10559551;28;20842;-94
2023/08/17 11:25:53;;;;;;;7.30;6.60;;;;;;;;;;10570605;28;20458;-96
2023/08/17 11:30:59;;;;;;;8.07;6.53;;;;;;;;;;10607443;27;20388;-94
2023/08/17 11:36:05;;;;;;;7.70;6.93;;;;;;;;;;10558886;28;20420;-94
2023/08/17 11:41:09;;;;;;;7.43;6.70;;;;;;;;;;10561834;28;20388;-94
2023/08/17 11:46:13;;;;;;;7.55;6.85;;;;;;;;;;10557644;28;20463;-95
2023/08/17 11:51:15;;;;;;;8.20;6.82;;;;;;;;;;10558919;28;20399;-95
2023/08/17 11:56:20;;;;;;;7.63;6.90;;;;;;;;;;10560719;28;20421;-95
2023/08/17 12:01:22;;;;;;;8.05;7.10;;;;;;;;;;10556025;28;20401;-94
2023/08/17 12:06:24;;;;;;;8.10;7.40;;;;;;;;;;10555315;28;20399;-95
2023/08/17 12:11:28;;;;;;;8.52;7.13;;;;;;;;;;10561356;28;20408;-94
2023/08/17 12:16:30;;;;;;;7.60;6.75;;;;;;;;;;10561929;28;20448;-94
2023/08/17 12:21:33;;;;;;;7.53;6.90;;;;;;;;;;10559417;28;20454;-93
2023/08/17 12:26:36;;;;;;;7.90;7.20;;;;;;;;;;10562708;28;20399;-94
2023/08/17 12:31:39;;;;;;;7.60;6.90;;;;;;;;;;10563011;28;20411;-95
2023/08/17 12:36:44;;;;;;;7.32;6.65;;;;;;;;;;10565149;28;20428;-95
2023/08/17 12:41:48;;;;;;;8.10;7.30;;;;;;;;;;10563081;28;20457;-95
2023/08/17 12:46:51;;;;;;;8.05;6.97;;;;;;;;;;10590069;28;20406;-95
2023/08/17 12:51:53;;;;;;;7.95;7.15;;;;;;;;;;10581953;28;20422;-95
2023/08/17 12:56:57;;;;;;;7.53;6.88;;;;;;;;;;10569605;22;20818;-95
2023/08/17 13:01:59;;;;;;;7.93;7.20;;;;;;;;;;10558216;28;20551;-95
2023/08/17 13:07:02;;;;;;;7.70;6.90;;;;;;;;;;10557894;28;20464;-95
2023/08/17 13:12:08;;;;;;;8.00;6.80;;;;;;;;;;10560070;28;20394;-95
2023/08/17 13:17:10;;;;;;;8.68;7.68;;;;;;;;;;10558997;28;20976;-96
2023/08/17 13:22:12;;;;;;;7.35;6.65;;;;;;;;;;10556579;28;21239;-95
2023/08/17 13:27:16;;;;;;;7.30;6.60;;;;;;;;;;10556190;28;20469;-95
2023/08/17 13:32:18;;;;;;;7.73;7.03;;;;;;;;;;10553999;28;20394;-96
2023/08/17 13:37:21;;;;;;;7.82;7.05;;;;;;;;;;10560073;28;20448;-95
2023/08/17 13:42:24;;;;;;;7.20;6.60;;;;;;;;;;10566997;28;20404;-95
2023/08/17 13:47:27;;;;;;;7.10;6.50;;;;;;;;;;10564653;28;20444;-95
2023/08/17 13:52:29;;;;;;;7.73;6.80;;;;;;;;;;10565884;28;20404;-95
2023/08/17 13:57:33;;;;;;;7.25;6.70;;;;;;;;;;10570739;28;20493;-95
2023/08/17 14:02:36;;;;;;;7.82;7.22;;;;;;;;;;10570031;28;20433;-95
2023/08/17 14:07:38;;;;;;;7.60;6.90;;;;;;;;;;10580054;28;20402;-95
2023/08/17 14:12:42;;;;;;;7.30;6.60;;;;;;;;;;10579633;28;20386;-94
2023/08/17 14:17:44;;;;;;;7.27;6.67;;;;;;;;;;10599541;27;20402;-95
2023/08/17 14:22:46;;;;;;;7.38;6.78;;;;;;;;;;10597804;27;20400;-95
2023/08/17 14:27:50;;;;;;;7.30;6.70;;;;;;;;;;10566311;28;20935;-95
2023/08/17 14:32:53;;;;;;;7.60;6.70;;;;;;;;;;10570009;28;20805;-95
2023/08/17 14:37:57;;;;;;;7.23;6.63;;;;;;;;;;10562944;28;20461;-96
2023/08/17 14:43:01;;;;;;;7.80;7.00;;;;;;;;;;10573641;28;20399;-95
2023/08/17 14:48:04;;;;;;;8.05;7.22;;;;;;;;;;10565911;28;20407;-95
2023/08/17 14:53:07;;;;;;;8.20;7.13;;;;;;;;;;10564470;28;20803;-94
2023/08/17 14:58:11;;;;;;;7.50;6.83;;;;;;;;;;10565936;28;20460;-96
2023/08/17 15:03:13;;;;;;;7.70;7.00;;;;;;;;;;10557623;28;20458;-95
2023/08/17 15:08:16;;;;;;;7.57;6.65;;;;;;;;;;10565049;28;20399;-96
2023/08/17 15:13:22;;;;;;;7.68;6.97;;;;;;;;;;10546959;28;20404;-95
2023/08/17 15:18:25;;;;;;;8.00;7.23;;;;;;;;;;10561787;28;20453;-95
2023/08/17 15:23:27;;;;;;;8.32;7.13;;;;;;;;;;10560205;28;20438;-96
2023/08/17 15:28:31;;;;;;;8.20;7.40;;;;;;;;;;10569872;28;21113;-95
2023/08/17 15:33:34;;;;;;;7.90;7.20;;;;;;;;;;10559168;28;20410;-95
2023/08/17 15:38:36;;;;;;;8.43;7.63;;;;;;;;;;10561542;28;20413;-96
2023/08/17 15:43:40;;;;;;;8.32;7.53;;;;;;;;;;10559747;28;20404;-95
2023/08/17 15:48:43;;;;;;;7.65;7.00;;;;;;;;;;10558631;28;20468;-94
2023/08/17 15:53:45;;;;;;;8.73;7.93;;;;;;;;;;10561613;28;20472;-96
2023/08/17 15:58:50;;;;;;;8.77;7.68;;;;;;;;;;10563558;28;20407;-95
2023/08/17 16:03:52;;;;;;;7.70;7.00;;;;;;;;;;10563496;28;20413;-95
2023/08/17 16:08:54;;;;;;;8.48;7.68;;;;;;;;;;10562736;28;20449;-96
2023/08/17 16:13:58;;;;;;;7.95;7.25;;;;;;;;;;10606125;27;20435;-96
2023/08/17 16:19:01;;;;;;;8.20;7.40;;;;;;;;;;10560043;28;20884;-95
2023/08/17 16:24:03;;;;;;;8.57;6.90;;;;;;;;;;10561993;28;20413;-96
2023/08/17 16:29:07;;;;;;;8.13;6.63;;;;;;;;;;10562612;28;20403;-95
2023/08/17 16:34:09;;;;;;;9.05;7.05;;;;;;;;;;10559088;28;20455;-95
2023/08/17 16:39:12;;;;;;;9.02;6.90;;;;;;;;;;10560238;28;20408;-95
2023/08/17 16:44:16;;;;;;;7.40;6.80;;;;;;;;;;10558519;28;20404;-95
2023/08/17 16:49:19;;;;;;;7.38;6.78;;;;;;;;;;10559910;28;20469;-95
2023/08/17 16:54:21;;;;;;;7.05;6.40;;;;;;;;;;10578483;28;20409;-96
2023/08/17 16:59:25;;;;;;;7.38;6.60;;;;;;;;;;10604091;28;20459;-94
2023/08/17 17:04:28;;;;;;;7.90;6.77;;;;;;;;;;10586968;28;20420;-96
2023/08/17 17:09:30;;;;;;;7.63;6.70;;;;;;;;;;10564201;28;20509;-94
2023/08/17 17:14:34;;;;;;;7.28;6.57;;;;;;;;;;10558070;28;20473;-96
2023/08/17 17:19:37;;;;;;;8.07;6.60;;;;;;;;;;10558824;28;20471;-96
2023/08/17 17:24:39;;;;;;;7.22;6.45;;;;;;;;;;10559190;28;20432;-95
2023/08/17 17:29:43;;;;;;;7.63;6.18;;;;;;;;;;10563002;28;20452;-96
2023/08/17 17:34:46;;;;;;;6.88;6.28;;;;;;;;;;10553869;28;20806;-94
2023/08/17 17:39:48;;;;;;;6.93;6.22;;;;;;;;;;10563130;28;20469;-95
2023/08/17 17:44:52;;;;;;;7.15;6.45;;;;;;;;;;10558389;28;20411;-96
2023/08/17 17:49:54;;;;;;;7.57;6.80;;;;;;;;;;10558332;28;20470;-96
2023/08/17 17:54:57;;;;;;;7.55;6.80;;;;;;;;;;10557403;28;20458;-96
2023/08/17 18:00:01;;;;;;;7.50;6.30;;;;;;;;;;10558561;28;20454;-96
2023/08/17 18:05:05;;;;;;;7.03;6.43;;;;;;;;;;10578968;27;20395;-95
2023/08/17 18:10:09;;;;;;;7.83;6.50;;;;;;;;;;10602629;27;20947;-94
2023/08/17 18:15:13;;;;;;;8.13;6.25;;;;;;;;;;10561808;28;20544;-96
2023/08/17 18:20:18;;;;;;;7.00;6.30;;;;;;;;;;10562041;28;20414;-96
2023/08/17 18:25:20;;;;;;;6.40;5.80;;;;;;;;;;10560794;28;20760;-95
2023/08/17 18:30:24;;;;;;;7.00;5.88;;;;;;;;;;10565326;28;20408;-95
2023/08/17 18:35:27;;;;;;;7.13;6.07;;;;;;;;;;10569912;28;20416;-95
2023/08/17 18:40:29;;;;;;;7.80;6.05;;;;;;;;;;10566342;28;20409;-95
2023/08/17 18:45:33;;;;;;;8.23;5.85;;;;;;;;;;10561163;28;20404;-96
2023/08/17 18:50:35;;;;;;;7.13;6.00;;;;;;;;;;10567411;28;20456;-95
2023/08/17 18:55:38;;;;;;;10.13;6.00;;;;;;;;;;10562647;28;20895;-95
2023/08/17 19:00:42;;;;;;;7.60;6.27;;;;;;;;;;10561254;28;20465;-95
2023/08/17 19:05:44;;;;;;;7.25;6.40;;;;;;;;;;10559995;28;20849;-96
2023/08/17 19:10:46;;;;;;;8.43;6.22;;;;;;;;;;10566372;28;20434;-95
2023/08/17 19:15:50;;;;;;;7.47;6.38;;;;;;;;;;10566551;28;20827;-96
2023/08/17 19:20:53;;;;;;;11.43;6.73;;;;;;;;;;10566160;28;20415;-94
2023/08/17 19:25:56;;;;;;;6.33;5.30;;;;;;;;;;10562405;28;20404;-94
2023/08/17 19:31:00;;;;;;;4.95;3.17;;;;;;;;;;10559277;28;20410;-95
2023/08/17 19:36:02;;;;;;;4.30;2.95;;;;;;;;;;10563570;28;20418;-94
2023/08/17 19:41:05;;;;;;;3.45;3.15;;;;;;;;;;10569415;28;20874;-96
2023/08/17 19:46:08;;;;;;;3.33;2.92;;;;;;;;;;10561152;28;20464;-95
2023/08/17 19:51:11;;;;;;;5.45;3.13;;;;;;;;;;10567472;28;20411;-96
2023/08/17 19:56:13;;;;;;;3.37;2.80;;;;;;;;;;10563798;28;20473;-95
2023/08/17 20:01:17;;;;;;;3.30;2.70;;;;;;;;;;10582401;28;20386;-95
2023/08/17 20:06:19;;;;;;;3.67;2.80;;;;;;;;;;10606598;27;20413;-96
2023/08/17 20:11:22;;;;;;;3.65;2.47;;;;;;;;;;10571928;28;20472;-93
2023/08/17 20:16:26;;;;;;;3.97;2.45;;;;;;;;;;10561277;28;20416;-95
2023/08/17 20:21:28;;;;;;;4.25;2.70;;;;;;;;;;10561577;28;20468;-96
2023/08/17 20:26:31;;;;;;;3.00;2.80;;;;;;;;;;10554654;28;20882;-95
2023/08/17 20:31:35;;;;;;;3.60;2.78;;;;;;;;;;10559536;28;20400;-95
2023/08/17 20:36:37;;;;;;;3.30;2.90;;;;;;;;;;10559051;28;20953;-95
2023/08/17 20:41:39;;;;;;;3.15;2.85;;;;;;;;;;10547079;28;20446;-94
2023/08/17 20:46:43;;;;;;;2.92;2.72;;;;;;;;;;10560023;28;20408;-95
2023/08/17 20:51:48;;;;;;;3.27;2.97;;;;;;;;;;10564668;28;20471;-94
2023/08/17 20:56:50;;;;;;;3.20;2.70;;;;;;;;;;10561688;28;20968;-94
2023/08/17 21:01:54;;;;;;;4.50;2.90;;;;;;;;;;10561758;28;20476;-96
2023/08/17 21:06:56;;;;;;;3.90;3.15;;;;;;;;;;10558076;28;20437;-94
2023/08/17 21:12:01;;;;;;;3.45;3.15;;;;;;;;;;10560828;28;20452;-95
2023/08/17 21:17:05;;;;;;;5.55;3.30;;;;;;;;;;10560788;28;20418;-94
2023/08/17 21:22:07;;;;;;;3.53;3.07;;;;;;;;;;10561336;28;20414;-94
2023/08/17 21:27:10;;;;;;;4.13;3.40;;;;;;;;;;10563727;28;20956;-96
2023/08/17 21:32:14;;;;;;;5.28;3.33;;;;;;;;;;10561079;28;20878;-95
2023/08/17 21:37:24;;;;;;;3.97;3.27;;;;;;;;;;10561259;28;20554;-95
2023/08/17 21:42:27;;;;;;;3.40;3.10;;;;;;;;;;10560745;28;20404;-95
2023/08/17 21:47:31;;;;;;;4.50;3.42;;;;;;;;;;10553055;28;20476;-94
2023/08/17 21:52:34;;;;;;;4.40;3.20;;;;;;;;;;10555314;28;20470;-94
2023/08/17 21:57:36;;;;;;;4.30;3.47;;;;;;;;;;10556079;28;20440;-94
2023/08/17 22:02:40;;;;;;;4.35;3.38;;;;;;;;;;10564449;28;20739;-94
2023/08/17 22:07:42;;;;;;;5.43;3.70;;;;;;;;;;10564681;28;20462;-96
2023/08/17 22:12:44;;;;;;;3.50;3.20;;;;;;;;;;10564044;28;20408;-96
2023/08/17 22:17:48;;;;;;;5.07;3.38;;;;;;;;;;10566293;28;20410;-93
2023/08/17 22:22:51;;;;;;;4.43;3.33;;;;;;;;;;10556741;28;20409;-94
2023/08/17 22:27:53;;;;;;;4.05;3.58;;;;;;;;;;10569477;28;21026;-95
2023/08/17 22:32:57;;;;;;;5.35;3.88;;;;;;;;;;10574080;28;20408;-94
2023/08/17 22:37:59;;;;;;;4.90;3.80;;;;;;;;;;10571447;28;20472;-94
2023/08/17 22:43:01;;;;;;;4.65;3.78;;;;;;;;;;10566767;28;20403;-93
2023/08/17 22:48:06;;;;;;;4.68;3.70;;;;;;;;;;10562004;28;20428;-94
2023/08/17 22:53:08;;;;;;;6.30;3.57;;;;;;;;;;10566439;28;20529;-95
2023/08/17 22:58:11;;;;;;;6.10;3.70;;;;;;;;;;10569831;28;20432;-94
2023/08/17 23:03:14;;;;;;;4.05;2.70;;;;;;;;;;10572926;28;20401;-95
2023/08/17 23:08:17;;;;;;;6.67;2.87;;;;;;;;;;10563928;28;20475;-94
2023/08/17 23:13:19;;;;;;;4.53;2.60;;;;;;;;;;10560341;28;20406;-96
2023/08/17 23:18:23;;;;;;;3.77;2.17;;;;;;;;;;10560925;28;20461;-94
2023/08/17 23:23:26;;;;;;;4.23;2.00;;;;;;;;;;10560051;28;20408;-94
2023/08/17 23:28:28;;;;;;;5.00;1.90;;;;;;;;;;10568636;28;20414;-95
2023/08/17 23:33:32;;;;;;;4.03;2.10;;;;;;;;;;10562268;28;20408;-94
2023/08/17 23:38:34;;;;;;;3.58;1.92;;;;;;;;;;10565897;28;20410;-94
2023/08/17 23:43:37;;;;;;;4.27;2.23;;;;;;;;;;10565861;28;20882;-95
2023/08/17 23:48:40;;;;;;;4.13;2.25;;;;;;;;;;10561014;28;20457;-95
2023/08/17 23:53:43;;;;;;;4.73;2.57;;;;;;;;;;10561819;28;20465;-94
2023/08/17 23:58:48;;;;;;;3.53;2.20;;;;;;;;;;10559400;28;20430;-94
